createdAt,value
2023-02-06T00:01:43.954Z,41.55
2023-02-06T00:04:12.679Z,42.35
2023-02-06T00:06:41.031Z,42.13
2023-02-06T00:09:09.592Z,42.58
2023-02-06T00:11:38.194Z,43.72
2023-02-06T00:14:07.011Z,43.63
2023-02-06T00:16:36.792Z,47.75
2023-02-06T00:19:06.797Z,42.05
2023-02-06T00:21:35.457Z,46.10
2023-02-06T00:24:04.143Z,43.55
2023-02-06T00:26:32.763Z,44.53
2023-02-06T00:29:01.191Z,42.00
2023-02-06T00:31:29.540Z,43.72
2023-02-06T00:33:57.974Z,43.85
2023-02-06T00:36:28.604Z,41.22
2023-02-06T00:38:56.932Z,42.45
2023-02-06T00:41:25.408Z,42.83
2023-02-06T00:43:53.694Z,42.72
2023-02-06T00:46:22.140Z,41.80
2023-02-06T00:48:52.435Z,41.45
2023-02-06T00:51:20.981Z,41.47
2023-02-06T00:53:51.297Z,42.58
2023-02-06T00:56:21.230Z,42.97
2023-02-06T00:58:49.664Z,41.42
2023-02-06T01:01:18.296Z,38.65
2023-02-06T01:03:47.126Z,45.47
2023-02-06T01:06:15.512Z,43.22
2023-02-06T01:08:43.957Z,43.40
2023-02-06T01:11:16.041Z,42.75
2023-02-06T01:13:44.777Z,39.35
2023-02-06T01:16:15.977Z,42.03
2023-02-06T01:18:44.451Z,40.92
2023-02-06T01:21:15.049Z,43.72
2023-02-06T01:23:44.493Z,44.70
2023-02-06T01:26:17.367Z,43.22
2023-02-06T01:28:48.526Z,41.60
2023-02-06T01:31:20.282Z,44.50
2023-02-06T01:33:50.705Z,41.70
2023-02-06T01:36:20.955Z,50.03
2023-02-06T01:38:50.292Z,41.60
2023-02-06T01:41:22.376Z,42.65
2023-02-06T01:44:12.750Z,46.75
2023-02-06T01:46:43.110Z,41.47
2023-02-06T01:49:17.451Z,44.13
2023-02-06T01:51:46.823Z,44.60
2023-02-06T01:54:16.406Z,45.20
2023-02-06T01:56:50.894Z,45.70
2023-02-06T01:59:19.438Z,44.53
2023-02-06T02:01:48.211Z,42.92
2023-02-06T02:04:20.308Z,46.63
2023-02-06T02:06:55.848Z,47.72
2023-02-06T02:09:24.384Z,46.38
2023-02-06T02:11:54.272Z,46.03
2023-02-06T02:14:22.733Z,49.53
2023-02-06T02:17:04.915Z,47.55
2023-02-06T02:20:16.430Z,44.78
2023-02-06T02:22:58.223Z,53.30
2023-02-06T02:26:38.042Z,46.22
2023-02-06T02:29:47.047Z,43.58
2023-02-06T02:32:52.068Z,41.70
2023-02-06T02:35:35.425Z,42.33
2023-02-06T02:38:19.336Z,48.17
2023-02-06T02:40:56.188Z,44.97
2023-02-06T02:43:35.710Z,48.60
2023-02-06T02:46:13.829Z,43.47
2023-02-06T02:48:46.627Z,46.72
2023-02-06T02:51:16.654Z,43.88
2023-02-06T02:53:45.208Z,45.40
2023-02-06T02:56:18.817Z,47.67
2023-02-06T02:58:51.842Z,44.63
2023-02-06T03:01:26.108Z,43.15
2023-02-06T03:03:56.569Z,48.72
2023-02-06T03:06:44.764Z,43.63
2023-02-06T03:09:23.853Z,45.03
2023-02-06T03:12:01.883Z,45.10
2023-02-06T03:14:36.026Z,38.25
2023-02-06T03:17:10.000Z,42.50
2023-02-06T03:19:45.254Z,41.93
2023-02-06T03:24:44.362Z,39.30
2023-02-06T03:27:16.196Z,43.63
2023-02-06T03:29:46.276Z,41.38
2023-02-06T03:32:19.682Z,45.92
2023-02-06T03:34:56.633Z,42.03
2023-02-06T03:37:27.752Z,38.47
2023-02-06T03:39:59.105Z,41.05
2023-02-06T03:42:27.832Z,45.42
2023-02-06T03:45:01.237Z,39.85
2023-02-06T03:47:31.329Z,36.17
2023-02-06T03:50:02.664Z,38.95
2023-02-06T03:52:39.638Z,41.15
2023-02-06T03:55:12.577Z,38.25
2023-02-06T03:57:43.416Z,44.83
2023-02-06T04:00:13.980Z,37.25
2023-02-06T04:02:43.481Z,45.45
2023-02-06T04:05:11.743Z,38.05
2023-02-06T04:07:41.564Z,36.95
2023-02-06T04:10:10.358Z,40.85
2023-02-06T04:12:39.299Z,37.30
2023-02-06T04:15:08.539Z,37.85
2023-02-06T04:17:53.721Z,38.60
2023-02-06T04:20:25.612Z,43.03
2023-02-06T04:22:55.511Z,46.15
2023-02-06T04:25:23.912Z,41.33
2023-02-06T04:27:52.333Z,39.35
2023-02-06T04:30:20.738Z,38.97
2023-02-06T04:32:49.006Z,38.08
2023-02-06T04:35:17.524Z,41.35
2023-02-06T04:37:45.768Z,40.40
2023-02-06T04:40:18.223Z,37.88
2023-02-06T04:42:46.640Z,37.58
2023-02-06T04:45:15.061Z,36.47
2023-02-06T04:47:43.541Z,38.15
2023-02-06T04:50:12.283Z,36.75
2023-02-06T04:52:40.561Z,34.30
2023-02-06T04:55:09.914Z,37.97
2023-02-06T04:57:39.768Z,39.72
2023-02-06T05:00:10.356Z,38.17
2023-02-06T05:02:39.824Z,36.35
2023-02-06T05:05:10.337Z,36.65
2023-02-06T05:07:38.629Z,38.60
2023-02-06T05:10:08.887Z,38.72
2023-02-06T05:12:39.055Z,38.75
2023-02-06T05:15:08.809Z,39.50
2023-02-06T05:17:37.123Z,37.40
2023-02-06T05:20:06.825Z,37.60
2023-02-06T05:22:35.251Z,38.25
2023-02-06T05:25:03.994Z,35.13
2023-02-06T05:27:32.255Z,41.85
2023-02-06T05:30:02.222Z,36.10
2023-02-06T05:32:30.437Z,40.00
2023-02-06T05:34:58.760Z,36.22
2023-02-06T05:37:27.108Z,34.95
2023-02-06T05:39:55.322Z,32.00
2023-02-06T05:42:23.578Z,33.20
2023-02-06T05:44:51.856Z,35.42
2023-02-06T05:47:21.473Z,32.85
2023-02-06T05:49:49.846Z,29.70
2023-02-06T05:52:18.241Z,32.17
2023-02-06T05:54:46.583Z,33.30
2023-02-06T05:57:14.964Z,34.05
2023-02-06T05:59:43.204Z,35.15
2023-02-06T06:02:11.861Z,31.67
2023-02-06T06:04:41.636Z,28.85
2023-02-06T06:07:10.668Z,28.20
2023-02-06T06:09:38.998Z,30.77
2023-02-06T06:12:08.003Z,27.05
2023-02-06T06:14:36.589Z,31.58
2023-02-06T06:17:05.222Z,28.75
2023-02-06T06:19:33.681Z,37.78
2023-02-06T06:22:03.511Z,37.35
2023-02-06T06:24:31.854Z,32.22
2023-02-06T06:27:00.224Z,28.77
2023-02-06T06:29:28.584Z,33.42
2023-02-06T06:31:57.253Z,33.55
2023-02-06T06:34:27.379Z,32.35
2023-02-06T06:36:55.728Z,30.63
2023-02-06T06:39:25.663Z,31.42
2023-02-06T06:41:53.961Z,31.58
2023-02-06T06:44:22.639Z,30.52
2023-02-06T06:46:51.136Z,31.73
2023-02-06T06:49:19.727Z,32.75
2023-02-06T06:51:47.982Z,29.80
2023-02-06T06:54:16.760Z,29.45
2023-02-06T06:56:46.364Z,30.70
2023-02-06T06:59:14.587Z,32.72
2023-02-06T07:01:42.864Z,29.85
2023-02-06T07:04:11.194Z,30.95
2023-02-06T07:06:39.538Z,29.88
2023-02-06T07:09:07.815Z,30.23
2023-02-06T07:14:06.956Z,30.20
2023-02-06T07:16:35.246Z,28.50
2023-02-06T07:19:03.766Z,32.85
2023-02-06T07:21:32.092Z,27.60
2023-02-06T07:24:00.701Z,27.85
2023-02-06T07:26:29.068Z,26.15
2023-02-06T07:28:58.572Z,26.83
2023-02-06T07:31:28.259Z,29.92
2023-02-06T07:33:56.545Z,26.77
2023-02-06T07:36:24.807Z,27.27
2023-02-06T07:38:53.199Z,26.20
2023-02-06T07:41:21.437Z,29.90
2023-02-06T07:43:49.799Z,27.90
2023-02-06T07:46:18.208Z,30.25
2023-02-06T07:48:47.986Z,27.13
2023-02-06T07:51:16.238Z,24.80
2023-02-06T07:53:44.551Z,33.50
2023-02-06T07:56:15.724Z,23.30
2023-02-06T07:58:44.426Z,23.52
2023-02-06T08:01:12.736Z,23.52
2023-02-06T08:03:41.061Z,22.38
2023-02-06T08:06:13.029Z,21.25
2023-02-06T08:08:41.749Z,21.80
2023-02-06T08:11:12.479Z,18.45
2023-02-06T08:13:40.958Z,19.65
2023-02-06T08:16:13.206Z,24.17
2023-02-06T08:18:42.009Z,22.05
2023-02-06T08:21:15.072Z,16.92
2023-02-06T08:23:44.483Z,20.80
2023-02-06T08:26:16.656Z,18.35
2023-02-06T08:28:47.551Z,19.48
2023-02-06T08:31:20.050Z,17.17
2023-02-06T08:33:49.001Z,19.25
2023-02-06T08:36:20.688Z,18.83
2023-02-06T08:38:49.547Z,17.33
2023-02-06T08:41:20.651Z,14.18
2023-02-06T08:43:50.699Z,21.20
2023-02-06T08:46:21.905Z,17.52
2023-02-06T08:48:55.228Z,19.73
2023-02-06T08:51:27.810Z,22.83
2023-02-06T08:53:58.301Z,16.02
2023-02-06T08:56:28.269Z,17.98
2023-02-06T08:58:59.501Z,15.48
2023-02-06T09:01:30.178Z,19.92
2023-02-06T09:04:00.806Z,17.60
2023-02-06T09:06:31.852Z,21.10
2023-02-06T09:09:00.464Z,19.80
2023-02-06T09:11:29.990Z,16.45
2023-02-06T09:14:01.000Z,14.75
2023-02-06T09:16:33.121Z,13.23
2023-02-06T09:19:02.757Z,15.60
2023-02-06T09:21:34.602Z,16.65
2023-02-06T09:24:05.336Z,14.98
2023-02-06T09:26:40.575Z,17.92
2023-02-06T09:29:13.698Z,14.23
2023-02-06T09:31:43.640Z,14.40
2023-02-06T09:34:14.415Z,14.80
2023-02-06T09:36:44.155Z,20.83
2023-02-06T09:39:12.433Z,17.27
2023-02-06T09:41:47.130Z,22.38
2023-02-06T09:44:21.185Z,14.57
2023-02-06T09:46:54.360Z,14.80
2023-02-06T09:49:27.166Z,13.48
2023-02-06T09:52:19.502Z,15.73
2023-02-06T09:55:00.415Z,14.85
2023-02-06T09:57:42.016Z,15.52
2023-02-06T10:00:29.589Z,16.73
2023-02-06T10:03:29.594Z,14.93
2023-02-06T10:06:12.671Z,12.35
2023-02-06T10:08:50.383Z,14.00
2023-02-06T10:11:25.730Z,19.02
2023-02-06T10:13:59.491Z,16.50
2023-02-06T10:16:39.521Z,15.98
2023-02-06T10:19:22.840Z,12.18
2023-02-06T10:21:57.118Z,15.45
2023-02-06T10:24:38.193Z,10.95
2023-02-06T10:27:13.831Z,12.10
2023-02-06T10:29:44.322Z,11.45
2023-02-06T10:32:38.473Z,14.32
2023-02-06T10:35:29.631Z,12.82
2023-02-06T10:38:28.468Z,13.40
2023-02-06T10:41:05.615Z,11.95
2023-02-06T10:43:44.776Z,12.88
2023-02-06T10:46:39.678Z,10.90
2023-02-06T10:49:18.622Z,7.53
2023-02-06T10:51:52.743Z,8.68
2023-02-06T10:54:25.694Z,7.72
2023-02-06T10:56:58.581Z,6.63
2023-02-06T10:59:31.315Z,8.68
2023-02-06T11:02:19.901Z,14.75
2023-02-06T11:04:55.334Z,12.27
2023-02-06T11:07:31.556Z,8.05
2023-02-06T11:10:00.709Z,8.35
2023-02-06T11:12:37.148Z,6.03
2023-02-06T11:15:19.439Z,10.30
2023-02-06T11:17:47.947Z,7.07
2023-02-06T11:20:23.209Z,8.45
2023-02-06T11:22:53.543Z,9.07
2023-02-06T11:25:28.657Z,7.13
2023-02-06T11:27:59.623Z,10.07
2023-02-06T11:30:35.653Z,9.55
2023-02-06T11:33:08.654Z,9.73
2023-02-06T11:35:41.983Z,8.57
2023-02-06T11:38:18.145Z,8.98
2023-02-06T11:40:57.391Z,13.27
2023-02-06T11:43:29.195Z,8.93
2023-02-06T11:46:17.046Z,11.23
2023-02-06T11:48:47.328Z,9.85
2023-02-06T11:51:17.880Z,9.48
2023-02-06T11:53:58.539Z,16.08
2023-02-06T11:56:28.582Z,8.82
2023-02-06T11:59:08.732Z,8.40
2023-02-06T12:01:45.301Z,9.73
2023-02-06T12:04:23.858Z,10.55
2023-02-06T12:06:58.421Z,6.75
2023-02-06T12:09:27.032Z,8.63
2023-02-06T12:12:02.278Z,12.40
2023-02-06T12:14:38.763Z,9.40
2023-02-06T12:17:24.646Z,8.45
2023-02-06T12:20:01.865Z,9.63
2023-02-06T12:22:37.331Z,8.45
2023-02-06T12:25:07.057Z,10.85
2023-02-06T12:27:39.873Z,11.52
2023-02-06T12:30:31.560Z,12.90
2023-02-06T12:33:09.697Z,12.35
2023-02-06T12:35:46.400Z,12.07
2023-02-06T12:38:25.406Z,11.18
2023-02-06T12:41:08.004Z,10.75
2023-02-06T12:43:38.936Z,26.55
2023-02-06T12:46:18.109Z,28.70
2023-02-06T12:48:53.269Z,24.08
2023-02-06T12:51:28.253Z,17.90
2023-02-06T12:56:32.966Z,11.07
2023-02-06T12:59:26.014Z,13.73
2023-02-06T13:02:02.097Z,9.63
2023-02-06T13:04:34.136Z,7.75
2023-02-06T13:07:09.292Z,8.70
2023-02-06T13:09:42.317Z,8.32
2023-02-06T13:12:20.754Z,6.28
2023-02-06T13:14:52.429Z,6.80
2023-02-06T13:17:25.378Z,11.43
2023-02-06T13:20:06.952Z,10.73
2023-02-06T13:22:45.783Z,8.70
2023-02-06T13:25:50.888Z,12.63
2023-02-06T13:28:58.064Z,9.95
2023-02-06T13:31:33.768Z,6.70
2023-02-06T13:34:09.600Z,5.15
2023-02-06T13:36:53.874Z,6.72
2023-02-06T13:39:33.403Z,5.10
2023-02-06T13:42:35.705Z,5.97
2023-02-06T13:45:07.093Z,6.45
2023-02-06T13:48:47.380Z,7.07
2023-02-06T13:51:48.518Z,12.80
2023-02-06T13:54:43.726Z,6.10
2023-02-06T13:57:29.813Z,5.40
2023-02-06T14:00:03.771Z,6.53
2023-02-06T14:02:39.319Z,7.10
2023-02-06T14:05:12.810Z,5.28
2023-02-06T14:08:08.430Z,4.90
2023-02-06T14:11:23.487Z,5.00
2023-02-06T14:14:28.296Z,5.28
2023-02-06T14:17:08.593Z,8.25
2023-02-06T14:19:46.582Z,6.47
2023-02-06T14:22:37.638Z,6.20
2023-02-06T14:25:39.647Z,9.60
2023-02-06T14:28:21.561Z,5.28
2023-02-06T14:31:01.667Z,7.00
2023-02-06T14:33:53.438Z,6.40
2023-02-06T14:36:40.247Z,8.43
2023-02-06T14:39:48.172Z,5.07
2023-02-06T14:42:23.646Z,7.97
2023-02-06T14:45:01.815Z,4.55
2023-02-06T14:47:33.974Z,7.25
2023-02-06T14:50:02.945Z,9.35
2023-02-06T14:52:34.354Z,8.15
2023-02-06T14:55:02.995Z,7.78
2023-02-06T14:57:34.489Z,6.95
2023-02-06T15:00:08.931Z,7.25
2023-02-06T15:02:40.064Z,6.23
2023-02-06T15:05:26.442Z,5.22
2023-02-06T15:07:59.692Z,5.65
2023-02-06T15:10:31.235Z,9.65
2023-02-06T15:13:01.132Z,7.68
2023-02-06T15:15:31.833Z,5.85
2023-02-06T15:18:04.184Z,6.38
2023-02-06T15:20:37.324Z,6.32
2023-02-06T15:23:17.698Z,7.60
2023-02-06T15:26:06.898Z,9.43
2023-02-06T15:28:38.184Z,7.20
2023-02-06T15:31:18.109Z,6.18
2023-02-06T15:33:50.917Z,7.30
2023-02-06T15:36:25.501Z,7.85
2023-02-06T15:38:54.145Z,13.82
2023-02-06T15:41:23.086Z,8.50
2023-02-06T15:44:02.805Z,5.95
2023-02-06T15:46:31.985Z,8.02
2023-02-06T15:49:00.790Z,6.82
2023-02-06T15:51:31.501Z,30.83
2023-02-06T15:54:19.394Z,6.65
2023-02-06T15:56:53.047Z,5.78
2023-02-06T15:59:25.924Z,10.00
2023-02-06T16:01:57.127Z,7.88
2023-02-06T16:04:30.820Z,11.55
2023-02-06T16:07:07.102Z,6.95
2023-02-06T16:09:42.364Z,9.45
2023-02-06T16:12:11.266Z,9.75
2023-02-06T16:14:51.783Z,5.80
2023-02-06T16:17:35.667Z,7.25
2023-02-06T16:20:08.100Z,5.43
2023-02-06T16:22:39.940Z,8.30
2023-02-06T16:25:22.937Z,10.05
2023-02-06T16:27:52.145Z,8.98
2023-02-06T16:30:29.110Z,9.55
2023-02-06T16:33:00.831Z,10.68
2023-02-06T16:35:30.254Z,15.50
2023-02-06T16:37:58.548Z,17.70
2023-02-06T16:40:27.103Z,18.95
2023-02-06T16:42:55.518Z,11.00
2023-02-06T16:45:29.016Z,11.02
2023-02-06T16:47:57.777Z,7.70
2023-02-06T16:50:26.121Z,6.03
2023-02-06T16:52:59.045Z,8.45
2023-02-06T16:55:28.840Z,8.43
2023-02-06T16:58:00.787Z,12.20
2023-02-06T17:00:33.050Z,9.32
2023-02-06T17:03:01.623Z,10.43
2023-02-06T17:05:31.684Z,10.88
2023-02-06T17:08:01.569Z,8.85
2023-02-06T17:10:30.050Z,7.00
2023-02-06T17:12:58.622Z,11.07
2023-02-06T17:15:27.524Z,6.80
2023-02-06T17:17:57.741Z,10.77
2023-02-06T17:20:34.184Z,11.75
2023-02-06T17:23:03.306Z,13.88
2023-02-06T17:25:32.660Z,11.07
2023-02-06T17:28:02.864Z,11.02
2023-02-06T17:30:31.807Z,8.73
2023-02-06T17:33:02.442Z,7.75
2023-02-06T17:35:34.358Z,8.60
2023-02-06T17:38:03.483Z,13.73
2023-02-06T17:40:35.545Z,8.05
2023-02-06T17:43:05.770Z,6.20
2023-02-06T17:45:35.582Z,7.40
2023-02-06T17:48:05.878Z,7.65
2023-02-06T17:50:36.813Z,12.02
2023-02-06T17:53:07.067Z,7.70
2023-02-06T17:55:36.812Z,11.50
2023-02-06T17:58:05.698Z,7.50
2023-02-06T18:00:34.350Z,8.63
2023-02-06T18:03:05.003Z,6.95
2023-02-06T18:05:34.938Z,8.57
2023-02-06T18:08:03.316Z,7.55
2023-02-06T18:10:31.885Z,8.55
2023-02-06T18:13:00.201Z,6.78
2023-02-06T18:15:30.400Z,6.45
2023-02-06T18:18:00.183Z,7.38
2023-02-06T18:20:28.460Z,7.68
2023-02-06T18:22:58.249Z,8.70
2023-02-06T18:25:26.592Z,6.60
2023-02-06T18:27:54.880Z,6.60
2023-02-06T18:30:23.689Z,8.90
2023-02-06T18:32:52.191Z,11.40
2023-02-06T18:35:20.729Z,10.15
2023-02-06T18:37:50.140Z,13.07
2023-02-06T18:40:20.110Z,6.80
2023-02-06T18:42:54.870Z,9.80
2023-02-06T18:45:26.432Z,8.27
2023-02-06T18:47:55.577Z,7.35
2023-02-06T18:50:24.134Z,7.65
2023-02-06T18:52:52.687Z,8.00
2023-02-06T18:55:22.714Z,27.65
2023-02-06T18:57:51.251Z,20.80
2023-02-06T19:00:22.966Z,13.25
2023-02-06T19:02:51.658Z,8.75
2023-02-06T19:05:21.065Z,8.65
2023-02-06T19:07:52.213Z,9.02
2023-02-06T19:10:23.050Z,6.97
2023-02-06T19:12:51.418Z,7.95
2023-02-06T19:15:20.403Z,8.43
2023-02-06T19:17:50.177Z,8.93
2023-02-06T19:20:19.265Z,7.32
2023-02-06T19:22:47.570Z,6.45
2023-02-06T19:25:16.113Z,6.47
2023-02-06T19:27:45.790Z,6.32
2023-02-06T19:30:14.541Z,10.57
2023-02-06T19:32:43.448Z,7.32
2023-02-06T19:35:12.112Z,5.35
2023-02-06T19:37:40.771Z,8.65
2023-02-06T19:40:09.862Z,10.43
2023-02-06T19:42:39.610Z,8.48
2023-02-06T19:45:09.641Z,13.52
2023-02-06T19:47:37.909Z,9.52
2023-02-06T19:50:07.233Z,8.60
2023-02-06T19:52:35.608Z,12.30
2023-02-06T19:55:04.328Z,9.95
2023-02-06T19:57:32.870Z,13.35
2023-02-06T20:00:01.194Z,13.60
2023-02-06T20:02:30.976Z,9.30
2023-02-06T20:05:01.571Z,11.85
2023-02-06T20:07:31.840Z,10.60
2023-02-06T20:10:00.224Z,11.20
2023-02-06T20:12:29.200Z,12.50
2023-02-06T20:14:57.595Z,11.80
2023-02-06T20:17:26.957Z,11.98
2023-02-06T20:19:59.847Z,8.93
2023-02-06T20:22:28.135Z,12.23
2023-02-06T20:24:56.593Z,10.00
2023-02-06T20:27:24.838Z,10.82
2023-02-06T20:29:53.944Z,11.63
2023-02-06T20:32:22.877Z,10.35
2023-02-06T20:34:51.771Z,10.05
2023-02-06T20:37:25.037Z,12.18
2023-02-06T20:39:53.940Z,10.32
2023-02-06T20:42:30.074Z,15.13
2023-02-06T20:44:59.509Z,14.88
2023-02-06T20:47:28.366Z,14.52
2023-02-06T20:50:00.365Z,9.35
2023-02-06T20:52:30.587Z,11.07
2023-02-06T20:54:58.988Z,9.93
2023-02-06T20:57:28.146Z,9.25
2023-02-06T20:59:56.406Z,10.68
2023-02-06T21:02:24.906Z,10.57
2023-02-06T21:04:53.284Z,8.25
2023-02-06T21:07:21.639Z,12.07
2023-02-06T21:09:51.729Z,10.35
2023-02-06T21:12:20.214Z,13.13
2023-02-06T21:14:48.560Z,10.93
2023-02-06T21:17:16.902Z,9.38
2023-02-06T21:19:45.267Z,11.95
2023-02-06T21:22:13.661Z,14.07
2023-02-06T21:24:41.996Z,13.40
2023-02-06T21:27:12.086Z,10.50
2023-02-06T21:29:40.453Z,10.00
2023-02-06T21:32:14.063Z,11.82
2023-02-06T21:34:43.729Z,9.15
2023-02-06T21:37:12.190Z,7.63
2023-02-06T21:39:41.060Z,9.18
2023-02-06T21:42:11.604Z,10.73
2023-02-06T21:44:39.835Z,9.35
2023-02-06T21:47:09.819Z,10.07
2023-02-06T21:49:38.334Z,10.60
2023-02-06T21:52:06.601Z,7.70
2023-02-06T21:54:34.898Z,8.18
2023-02-06T21:57:03.390Z,9.63
2023-02-06T21:59:34.165Z,7.43
2023-02-06T22:02:02.591Z,8.48
2023-02-06T22:04:30.903Z,7.55
2023-02-06T22:06:59.334Z,9.23
2023-02-06T22:09:27.669Z,9.27
2023-02-06T22:11:56.748Z,9.13
2023-02-06T22:14:25.257Z,8.43
2023-02-06T22:16:55.006Z,9.60
2023-02-06T22:19:23.306Z,9.77
2023-02-06T22:21:51.678Z,9.85
2023-02-06T22:24:20.628Z,8.68
2023-02-06T22:26:49.012Z,10.43
2023-02-06T22:29:18.869Z,8.85
2023-02-06T22:31:48.413Z,8.77
2023-02-06T22:34:21.294Z,9.15
2023-02-06T22:36:51.192Z,10.98
2023-02-06T22:39:19.608Z,8.90
2023-02-06T22:41:48.893Z,9.00
2023-02-06T22:44:18.594Z,10.95
2023-02-06T22:46:49.861Z,8.95
2023-02-06T22:49:20.771Z,10.77
2023-02-06T22:51:49.405Z,8.15
2023-02-06T22:54:18.133Z,7.78
2023-02-06T22:56:47.040Z,10.38
2023-02-06T22:59:19.141Z,10.23
2023-02-06T23:01:49.720Z,10.32
2023-02-06T23:04:23.010Z,9.65
2023-02-06T23:06:52.920Z,11.13
2023-02-06T23:09:24.149Z,9.82
2023-02-06T23:11:54.053Z,13.45
2023-02-06T23:14:22.674Z,9.05
2023-02-06T23:16:51.590Z,10.45
2023-02-06T23:19:22.007Z,10.80
2023-02-06T23:21:52.221Z,10.13
2023-02-06T23:24:21.287Z,9.52
2023-02-06T23:26:53.153Z,9.07
2023-02-06T23:29:23.869Z,9.48
2023-02-06T23:31:52.698Z,9.30
2023-02-06T23:34:24.492Z,8.43
2023-02-06T23:36:53.931Z,9.45
2023-02-06T23:39:22.792Z,10.90
2023-02-06T23:41:51.254Z,11.35
2023-02-06T23:44:20.086Z,9.05
2023-02-06T23:46:48.717Z,8.57
2023-02-06T23:49:17.070Z,11.05
2023-02-06T23:51:47.109Z,10.75
2023-02-06T23:54:15.513Z,8.02
2023-02-06T23:56:44.160Z,10.13
2023-02-06T23:59:12.896Z,13.10
